createdAt,value
2022-11-25T00:01:31.988Z,20.73
2022-11-25T00:04:01.838Z,21.77
2022-11-25T00:06:35.276Z,20.70
2022-11-25T00:09:08.127Z,20.67
2022-11-25T00:11:42.900Z,18.77
2022-11-25T00:14:14.968Z,19.75
2022-11-25T00:16:46.678Z,19.77
2022-11-25T00:19:18.580Z,17.17
2022-11-25T00:21:48.181Z,17.42
2022-11-25T00:24:18.588Z,17.58
2022-11-25T00:26:46.149Z,16.92
2022-11-25T00:29:13.850Z,16.30
2022-11-25T00:31:42.001Z,17.75
2022-11-25T00:34:13.845Z,15.57
2022-11-25T00:36:41.168Z,16.17
2022-11-25T00:39:13.739Z,16.23
2022-11-25T00:41:41.229Z,16.33
2022-11-25T00:44:12.231Z,16.27
2022-11-25T00:46:39.359Z,17.00
2022-11-25T00:49:09.257Z,16.92
2022-11-25T00:51:36.243Z,16.42
2022-11-25T00:54:03.824Z,15.55
2022-11-25T00:56:30.878Z,15.55
2022-11-25T00:58:58.230Z,15.13
2022-11-25T01:01:25.900Z,15.77
2022-11-25T01:03:57.992Z,15.55
2022-11-25T01:06:25.009Z,16.17
2022-11-25T01:08:52.993Z,14.70
2022-11-25T01:11:25.361Z,15.35
2022-11-25T01:13:56.660Z,15.20
2022-11-25T01:16:33.154Z,14.43
2022-11-25T01:19:01.256Z,15.48
2022-11-25T01:21:30.854Z,14.45
2022-11-25T01:24:03.159Z,15.43
2022-11-25T01:26:30.706Z,14.57
2022-11-25T01:29:00.858Z,14.30
2022-11-25T01:31:30.379Z,15.00
2022-11-25T01:34:01.085Z,13.60
2022-11-25T01:36:28.930Z,15.18
2022-11-25T01:39:00.641Z,14.05
2022-11-25T01:41:30.318Z,14.32
2022-11-25T01:44:16.016Z,13.43
2022-11-25T01:47:15.905Z,13.52
2022-11-25T01:50:03.960Z,12.85
2022-11-25T01:52:44.295Z,13.75
2022-11-25T01:55:12.009Z,11.48
2022-11-25T01:57:47.444Z,13.77
2022-11-25T02:00:15.804Z,13.07
2022-11-25T02:02:43.472Z,12.05
2022-11-25T02:05:17.986Z,13.85
2022-11-25T02:07:47.382Z,14.18
2022-11-25T02:10:19.612Z,14.07
2022-11-25T02:12:49.724Z,14.32
2022-11-25T02:15:17.440Z,13.20
2022-11-25T02:17:45.425Z,13.27
2022-11-25T02:20:21.700Z,14.57
2022-11-25T02:22:59.132Z,12.50
2022-11-25T02:25:32.989Z,13.40
2022-11-25T02:28:16.001Z,12.57
2022-11-25T02:30:44.746Z,11.93
2022-11-25T02:33:15.264Z,11.00
2022-11-25T02:35:52.428Z,11.38
2022-11-25T02:38:24.135Z,12.18
2022-11-25T02:40:57.686Z,11.02
2022-11-25T02:43:25.001Z,11.65
2022-11-25T02:46:02.390Z,12.32
2022-11-25T02:49:06.930Z,12.40
2022-11-25T02:51:24.766Z,12.82
2022-11-25T02:53:52.788Z,13.05
2022-11-25T02:56:22.144Z,12.93
2022-11-25T02:58:49.368Z,12.82
2022-11-25T03:03:58.029Z,11.65
2022-11-25T03:06:25.498Z,11.40
2022-11-25T03:08:52.518Z,11.10
2022-11-25T03:11:19.912Z,11.10
2022-11-25T03:13:46.920Z,10.60
2022-11-25T03:16:14.346Z,11.02
2022-11-25T03:18:43.613Z,10.48
2022-11-25T03:21:10.892Z,10.40
2022-11-25T03:23:40.202Z,10.05
2022-11-25T03:26:09.811Z,8.82
2022-11-25T03:28:36.878Z,9.68
2022-11-25T03:31:04.177Z,9.60
2022-11-25T03:33:31.162Z,9.13
2022-11-25T03:35:58.498Z,9.68
2022-11-25T03:38:25.483Z,9.48
2022-11-25T03:40:55.335Z,10.32
2022-11-25T03:43:23.460Z,9.57
2022-11-25T03:45:50.959Z,10.02
2022-11-25T03:48:20.512Z,10.30
2022-11-25T03:50:48.918Z,9.75
2022-11-25T03:53:16.009Z,10.70
2022-11-25T03:55:47.847Z,9.45
2022-11-25T03:58:19.467Z,10.43
2022-11-25T04:00:49.225Z,9.40
2022-11-25T04:03:18.694Z,9.85
2022-11-25T04:05:46.021Z,10.60
2022-11-25T04:08:13.851Z,10.50
2022-11-25T04:10:43.400Z,10.40
2022-11-25T04:13:11.420Z,10.38
2022-11-25T04:15:43.821Z,11.13
2022-11-25T04:18:14.432Z,10.20
2022-11-25T04:20:46.558Z,9.57
2022-11-25T04:23:16.105Z,10.98
2022-11-25T04:25:43.421Z,9.20
2022-11-25T04:28:13.010Z,9.43
2022-11-25T04:30:40.395Z,9.80
2022-11-25T04:33:09.776Z,8.90
2022-11-25T04:35:37.084Z,9.23
2022-11-25T04:38:04.120Z,11.15
2022-11-25T04:40:33.955Z,9.82
2022-11-25T04:43:04.885Z,8.73
2022-11-25T04:45:58.539Z,9.35
2022-11-25T04:48:26.407Z,7.85
2022-11-25T04:50:53.792Z,9.05
2022-11-25T04:53:20.944Z,14.00
2022-11-25T04:55:48.628Z,13.75
2022-11-25T04:58:16.013Z,13.30
2022-11-25T05:00:43.455Z,11.25
2022-11-25T05:03:14.921Z,11.95
2022-11-25T05:05:42.349Z,12.05
2022-11-25T05:08:09.467Z,10.32
2022-11-25T05:10:36.897Z,10.38
2022-11-25T05:13:03.950Z,10.73
2022-11-25T05:15:33.619Z,11.07
2022-11-25T05:18:02.905Z,11.70
2022-11-25T05:20:30.265Z,11.77
2022-11-25T05:23:00.347Z,11.70
2022-11-25T05:25:27.839Z,11.15
2022-11-25T05:27:54.884Z,10.45
2022-11-25T05:30:24.769Z,11.85
2022-11-25T05:32:54.052Z,11.35
2022-11-25T05:35:21.392Z,11.13
2022-11-25T05:37:48.408Z,10.15
2022-11-25T05:40:16.017Z,9.73
2022-11-25T05:42:45.695Z,8.85
2022-11-25T05:45:13.113Z,9.63
2022-11-25T05:47:40.162Z,9.35
2022-11-25T05:50:08.065Z,7.63
2022-11-25T05:52:35.048Z,7.60
2022-11-25T05:55:02.389Z,7.72
2022-11-25T05:57:29.521Z,7.13
2022-11-25T05:59:59.104Z,19.95
2022-11-25T06:02:26.260Z,9.20
2022-11-25T06:04:53.826Z,8.70
2022-11-25T06:07:20.957Z,8.57
2022-11-25T06:09:51.053Z,7.63
2022-11-25T06:12:20.201Z,8.85
2022-11-25T06:14:47.545Z,8.20
2022-11-25T06:17:14.772Z,8.23
2022-11-25T06:19:44.631Z,9.20
2022-11-25T06:22:11.618Z,10.93
2022-11-25T06:24:39.066Z,10.77
2022-11-25T06:27:06.482Z,11.18
2022-11-25T06:29:36.432Z,11.52
2022-11-25T06:32:03.682Z,12.70
2022-11-25T06:34:31.022Z,14.07
2022-11-25T06:36:58.767Z,10.68
2022-11-25T06:39:26.177Z,11.20
2022-11-25T06:41:58.773Z,11.07
2022-11-25T06:44:26.135Z,10.50
2022-11-25T06:46:53.259Z,12.88
2022-11-25T06:49:20.895Z,11.65
2022-11-25T06:51:50.406Z,12.52
2022-11-25T06:54:18.055Z,11.50
2022-11-25T06:56:45.105Z,11.77
2022-11-25T06:59:14.945Z,15.48
2022-11-25T07:01:44.600Z,14.35
2022-11-25T07:04:14.517Z,15.45
2022-11-25T07:06:41.653Z,14.48
2022-11-25T07:09:11.472Z,12.38
2022-11-25T07:11:41.017Z,13.35
2022-11-25T07:14:14.109Z,13.25
2022-11-25T07:16:44.150Z,12.63
2022-11-25T07:19:13.667Z,13.55
2022-11-25T07:21:41.642Z,12.63
2022-11-25T07:24:12.887Z,11.55
2022-11-25T07:26:41.672Z,10.48
2022-11-25T07:29:54.152Z,9.20
2022-11-25T07:32:07.133Z,9.38
2022-11-25T07:34:37.996Z,7.95
2022-11-25T07:37:05.070Z,8.35
2022-11-25T07:39:32.428Z,8.98
2022-11-25T07:41:59.691Z,9.00
2022-11-25T07:44:26.975Z,9.48
2022-11-25T07:46:54.079Z,9.65
2022-11-25T07:49:23.427Z,10.45
2022-11-25T07:51:56.110Z,9.20
2022-11-25T07:54:25.999Z,10.25
2022-11-25T07:56:53.180Z,9.73
2022-11-25T07:59:24.501Z,10.88
2022-11-25T08:01:54.051Z,12.38
2022-11-25T08:04:24.132Z,14.38
2022-11-25T08:06:52.735Z,13.50
2022-11-25T08:09:22.687Z,13.02
2022-11-25T08:11:52.522Z,12.82
2022-11-25T08:14:20.329Z,13.10
2022-11-25T08:16:49.894Z,12.85
2022-11-25T08:19:17.697Z,13.30
2022-11-25T08:21:47.648Z,13.27
2022-11-25T08:24:17.626Z,12.05
2022-11-25T08:26:47.595Z,13.63
2022-11-25T08:29:17.327Z,13.77
2022-11-25T08:31:47.260Z,13.90
2022-11-25T08:34:20.647Z,14.35
2022-11-25T08:36:50.473Z,14.93
2022-11-25T08:42:07.484Z,15.35
2022-11-25T08:44:37.176Z,16.88
2022-11-25T08:47:04.246Z,16.40
2022-11-25T08:49:34.962Z,15.48
2022-11-25T08:52:06.056Z,17.23
2022-11-25T08:54:36.080Z,16.25
2022-11-25T08:57:03.126Z,16.95
2022-11-25T08:59:30.457Z,15.65
2022-11-25T09:01:57.832Z,14.90
2022-11-25T09:04:25.353Z,15.82
2022-11-25T09:06:52.406Z,17.13
2022-11-25T09:09:20.374Z,16.50
2022-11-25T09:11:47.526Z,14.20
2022-11-25T09:14:17.282Z,15.32
2022-11-25T09:16:44.527Z,14.32
2022-11-25T09:19:14.147Z,13.70
2022-11-25T09:21:43.715Z,13.32
2022-11-25T09:24:11.368Z,14.60
2022-11-25T09:26:38.369Z,14.90
2022-11-25T09:29:08.328Z,13.95
2022-11-25T09:31:35.506Z,12.75
2022-11-25T09:34:02.874Z,14.25
2022-11-25T09:36:29.899Z,13.82
2022-11-25T09:38:57.633Z,14.07
2022-11-25T09:41:45.755Z,16.48
2022-11-25T09:44:37.738Z,13.55
2022-11-25T09:47:28.767Z,12.80
2022-11-25T09:50:20.811Z,14.32
2022-11-25T09:53:02.693Z,13.55
2022-11-25T09:55:37.472Z,12.20
2022-11-25T09:58:16.501Z,12.07
2022-11-25T10:00:51.638Z,11.98
2022-11-25T10:03:39.360Z,13.07
2022-11-25T10:06:09.764Z,12.82
2022-11-25T10:08:43.813Z,12.80
2022-11-25T10:11:28.670Z,12.60
2022-11-25T10:14:10.872Z,12.98
2022-11-25T10:16:51.122Z,18.95
2022-11-25T10:20:05.424Z,16.13
2022-11-25T10:22:44.221Z,15.93
2022-11-25T10:25:24.400Z,15.50
2022-11-25T10:28:10.513Z,14.65
2022-11-25T10:30:55.310Z,15.43
2022-11-25T10:33:31.992Z,14.70
2022-11-25T10:36:20.772Z,13.20
2022-11-25T10:38:59.728Z,14.55
2022-11-25T10:41:32.507Z,14.70
2022-11-25T10:44:02.044Z,13.77
2022-11-25T10:47:11.702Z,11.77
2022-11-25T10:49:38.551Z,12.60
2022-11-25T10:52:12.242Z,13.18
2022-11-25T10:54:40.129Z,10.85
2022-11-25T10:57:19.169Z,10.45
2022-11-25T11:00:00.884Z,9.90
2022-11-25T11:02:34.380Z,8.15
2022-11-25T11:05:09.481Z,8.95
2022-11-25T11:07:44.817Z,9.63
2022-11-25T11:10:15.161Z,9.73
2022-11-25T11:13:04.539Z,9.98
2022-11-25T11:15:42.178Z,9.13
2022-11-25T11:18:15.164Z,7.78
2022-11-25T11:20:52.282Z,8.00
2022-11-25T11:23:19.592Z,8.60
2022-11-25T11:26:06.912Z,8.30
2022-11-25T11:28:36.778Z,7.20
2022-11-25T11:31:23.465Z,6.78
2022-11-25T11:34:08.372Z,6.78
2022-11-25T11:36:57.544Z,7.60
2022-11-25T11:39:55.271Z,6.68
2022-11-25T11:42:56.156Z,7.20
2022-11-25T11:45:48.414Z,7.15
2022-11-25T11:48:21.452Z,8.27
2022-11-25T11:50:57.752Z,8.17
2022-11-25T11:53:53.965Z,7.00
2022-11-25T11:56:55.031Z,6.72
2022-11-25T11:59:54.676Z,6.05
2022-11-25T12:02:22.045Z,7.45
2022-11-25T12:05:01.515Z,5.70
2022-11-25T12:07:38.445Z,5.55
2022-11-25T12:10:14.935Z,5.72
2022-11-25T12:13:15.976Z,5.63
2022-11-25T12:16:15.333Z,6.15
2022-11-25T12:18:47.776Z,5.20
2022-11-25T12:21:27.211Z,5.37
2022-11-25T12:24:12.753Z,4.80
2022-11-25T12:26:58.687Z,4.85
2022-11-25T12:29:33.910Z,5.15
2022-11-25T12:32:28.526Z,4.97
2022-11-25T12:35:11.543Z,5.10
2022-11-25T12:38:09.252Z,6.10
2022-11-25T12:41:04.916Z,6.72
2022-11-25T12:43:47.475Z,6.57
2022-11-25T12:46:34.614Z,7.22
2022-11-25T12:49:02.697Z,6.45
2022-11-25T12:51:46.619Z,6.25
2022-11-25T12:54:42.200Z,6.47
2022-11-25T12:57:51.546Z,6.20
2022-11-25T13:00:43.983Z,5.57
2022-11-25T13:03:54.013Z,6.53
2022-11-25T13:06:49.816Z,5.20
2022-11-25T13:09:41.645Z,5.82
2022-11-25T13:12:37.741Z,6.25
2022-11-25T13:15:17.181Z,5.60
2022-11-25T13:17:46.918Z,5.70
2022-11-25T13:20:29.475Z,7.70
2022-11-25T13:23:05.616Z,6.50
2022-11-25T13:25:46.690Z,7.15
2022-11-25T13:28:32.714Z,6.90
2022-11-25T13:31:14.873Z,7.40
2022-11-25T13:33:45.273Z,7.85
2022-11-25T13:36:19.552Z,8.18
2022-11-25T13:38:50.544Z,8.45
2022-11-25T13:41:20.744Z,7.90
2022-11-25T13:43:53.926Z,8.20
2022-11-25T13:46:41.910Z,8.67
2022-11-25T13:49:39.712Z,9.63
2022-11-25T13:52:31.151Z,9.80
2022-11-25T13:55:20.926Z,9.48
2022-11-25T13:58:15.040Z,10.10
2022-11-25T14:00:47.692Z,9.75
2022-11-25T14:03:20.924Z,10.57
2022-11-25T14:06:03.290Z,13.30
2022-11-25T14:08:33.507Z,12.27
2022-11-25T14:11:10.053Z,12.25
2022-11-25T14:14:07.104Z,12.65
2022-11-25T14:17:21.911Z,12.77
2022-11-25T14:20:28.202Z,13.35
2022-11-25T14:23:22.698Z,13.88
2022-11-25T14:28:21.795Z,13.05
2022-11-25T14:30:54.544Z,16.40
2022-11-25T14:33:34.265Z,15.68
2022-11-25T14:36:09.302Z,15.85
2022-11-25T14:38:52.442Z,14.85
2022-11-25T14:41:30.010Z,16.05
2022-11-25T14:44:04.943Z,15.27
2022-11-25T14:46:32.084Z,14.50
2022-11-25T14:49:03.305Z,14.95
2022-11-25T14:51:37.858Z,14.85
2022-11-25T14:54:09.520Z,13.35
2022-11-25T14:56:37.627Z,14.48
2022-11-25T14:59:09.821Z,14.10
2022-11-25T15:01:51.100Z,13.15
2022-11-25T15:04:24.875Z,13.40
2022-11-25T15:06:57.735Z,13.35
2022-11-25T15:09:32.620Z,12.20
2022-11-25T15:12:04.899Z,12.57
2022-11-25T15:14:35.163Z,13.13
2022-11-25T15:17:08.221Z,13.27
2022-11-25T15:19:39.615Z,12.90
2022-11-25T15:22:24.276Z,13.10
2022-11-25T15:24:56.025Z,15.07
2022-11-25T15:27:27.282Z,16.15
2022-11-25T15:29:57.715Z,15.23
2022-11-25T15:32:34.440Z,13.80
2022-11-25T15:35:06.749Z,15.32
2022-11-25T15:37:33.896Z,16.27
2022-11-25T15:40:30.779Z,16.67
2022-11-25T15:42:59.847Z,16.83
2022-11-25T15:45:34.849Z,16.35
2022-11-25T15:48:03.573Z,19.60
2022-11-25T15:50:31.808Z,20.13
2022-11-25T15:53:00.301Z,20.67
2022-11-25T15:55:38.653Z,19.60
2022-11-25T15:58:22.159Z,20.35
2022-11-25T16:01:07.018Z,21.25
2022-11-25T16:03:35.038Z,22.38
2022-11-25T16:06:25.198Z,23.15
2022-11-25T16:09:00.660Z,23.63
2022-11-25T16:11:29.645Z,22.00
2022-11-25T16:14:25.002Z,25.33
2022-11-25T16:17:03.016Z,25.27
2022-11-25T16:19:38.886Z,24.75
2022-11-25T16:22:15.829Z,29.55
2022-11-25T16:25:09.696Z,32.45
2022-11-25T16:27:40.871Z,30.33
2022-11-25T16:30:19.796Z,32.60
2022-11-25T16:32:47.162Z,33.05
2022-11-25T16:35:17.763Z,33.22
2022-11-25T16:37:48.859Z,31.65
2022-11-25T16:40:20.399Z,32.20
2022-11-25T16:42:49.886Z,33.72
2022-11-25T16:45:24.056Z,33.15
2022-11-25T16:50:20.226Z,27.63
2022-11-25T16:52:49.545Z,32.40
2022-11-25T16:55:17.024Z,35.40
2022-11-25T16:57:44.290Z,30.55
2022-11-25T17:00:17.435Z,30.20
2022-11-25T17:02:45.466Z,29.77
2022-11-25T17:05:22.915Z,26.88
2022-11-25T17:07:50.480Z,22.38
2022-11-25T17:10:19.386Z,19.92
2022-11-25T17:12:50.616Z,20.38
2022-11-25T17:15:21.155Z,18.55
2022-11-25T17:17:49.320Z,19.75
2022-11-25T17:20:22.511Z,20.23
2022-11-25T17:22:52.909Z,21.13
2022-11-25T17:25:24.191Z,21.58
2022-11-25T17:27:51.759Z,23.20
2022-11-25T17:30:19.135Z,23.58
2022-11-25T17:32:47.607Z,25.00
2022-11-25T17:35:21.649Z,25.55
2022-11-25T17:37:51.348Z,30.60
2022-11-25T17:40:18.920Z,31.85
2022-11-25T17:42:49.297Z,31.48
2022-11-25T17:45:21.141Z,29.30
2022-11-25T17:47:49.192Z,30.13
2022-11-25T17:50:22.227Z,30.58
2022-11-25T17:52:54.265Z,31.60
2022-11-25T17:55:21.712Z,26.80
2022-11-25T17:57:52.361Z,23.73
2022-11-25T18:00:25.081Z,20.02
2022-11-25T18:02:54.665Z,17.20
2022-11-25T18:05:27.527Z,14.27
2022-11-25T18:07:55.741Z,15.50
2022-11-25T18:10:26.816Z,13.55
2022-11-25T18:12:56.035Z,13.80
2022-11-25T18:15:32.298Z,15.45
2022-11-25T18:18:06.006Z,14.30
2022-11-25T18:20:34.854Z,15.38
2022-11-25T18:23:01.887Z,15.70
2022-11-25T18:25:32.059Z,17.42
2022-11-25T18:28:00.570Z,18.52
2022-11-25T18:30:30.647Z,15.82
2022-11-25T18:32:57.864Z,16.25
2022-11-25T18:35:36.114Z,16.35
2022-11-25T18:38:05.367Z,17.17
2022-11-25T18:40:34.828Z,17.60
2022-11-25T18:43:04.225Z,18.38
2022-11-25T18:45:36.061Z,18.27
2022-11-25T18:48:15.922Z,18.85
2022-11-25T18:50:47.380Z,18.60
2022-11-25T18:53:14.506Z,18.63
2022-11-25T18:55:44.681Z,19.25
2022-11-25T18:58:24.607Z,17.17
2022-11-25T19:00:53.083Z,19.02
2022-11-25T19:03:25.362Z,20.10
2022-11-25T19:05:53.323Z,19.08
2022-11-25T19:08:22.537Z,20.30
2022-11-25T19:10:52.482Z,21.63
2022-11-25T19:13:26.238Z,20.35
2022-11-25T19:15:54.094Z,18.35
2022-11-25T19:18:26.384Z,20.30
2022-11-25T19:20:56.249Z,21.02
2022-11-25T19:23:26.229Z,19.17
2022-11-25T19:25:58.441Z,19.20
2022-11-25T19:28:25.677Z,17.88
2022-11-25T19:30:58.387Z,18.55
2022-11-25T19:33:30.840Z,15.98
2022-11-25T19:35:58.248Z,18.02
2022-11-25T19:38:25.599Z,16.67
2022-11-25T19:40:57.483Z,17.23
2022-11-25T19:43:25.391Z,14.75
2022-11-25T19:45:54.360Z,16.50
2022-11-25T19:48:23.931Z,17.40
2022-11-25T19:50:52.308Z,16.90
2022-11-25T19:53:22.019Z,16.73
2022-11-25T19:55:49.317Z,17.23
2022-11-25T19:58:16.593Z,15.80
2022-11-25T20:00:45.715Z,17.05
2022-11-25T20:03:30.136Z,18.40
2022-11-25T20:05:59.945Z,18.15
2022-11-25T20:08:28.540Z,19.00
2022-11-25T20:10:56.837Z,20.50
2022-11-25T20:13:24.241Z,20.98
2022-11-25T20:15:52.627Z,19.23
2022-11-25T20:18:26.924Z,21.55
2022-11-25T20:21:03.189Z,20.27
2022-11-25T20:23:51.005Z,19.33
2022-11-25T20:26:27.203Z,19.92
2022-11-25T20:28:54.434Z,19.25
2022-11-25T20:31:28.721Z,19.38
2022-11-25T20:33:59.477Z,19.98
2022-11-25T20:36:31.363Z,19.15
2022-11-25T20:38:59.004Z,19.83
2022-11-25T20:41:28.189Z,20.40
2022-11-25T20:43:58.435Z,18.73
2022-11-25T20:46:29.492Z,20.27
2022-11-25T20:49:00.433Z,19.10
2022-11-25T20:51:28.710Z,20.48
2022-11-25T20:53:58.597Z,20.75
2022-11-25T20:56:27.307Z,21.95
2022-11-25T20:58:55.024Z,22.63
2022-11-25T21:01:22.436Z,21.85
2022-11-25T21:03:50.418Z,21.08
2022-11-25T21:06:20.719Z,23.08
2022-11-25T21:08:53.063Z,22.42
2022-11-25T21:11:24.650Z,22.30
2022-11-25T21:13:51.727Z,22.67
2022-11-25T21:16:21.824Z,21.90
2022-11-25T21:18:48.988Z,23.00
2022-11-25T21:21:25.890Z,22.58
2022-11-25T21:23:52.966Z,21.90
2022-11-25T21:26:23.529Z,20.60
2022-11-25T21:28:54.622Z,19.67
2022-11-25T21:31:26.101Z,18.52
2022-11-25T21:34:02.137Z,19.92
2022-11-25T21:36:31.647Z,19.92
2022-11-25T21:39:08.461Z,19.55
2022-11-25T21:41:36.279Z,20.25
2022-11-25T21:44:05.995Z,21.52
2022-11-25T21:46:33.970Z,22.35
2022-11-25T21:49:08.809Z,21.38
2022-11-25T21:51:36.167Z,22.13
2022-11-25T21:54:03.382Z,21.33
2022-11-25T21:56:34.492Z,21.23
2022-11-25T21:59:03.885Z,21.70
2022-11-25T22:01:32.095Z,22.20
2022-11-25T22:03:59.519Z,22.65
2022-11-25T22:06:29.482Z,21.95
2022-11-25T22:08:57.375Z,20.17
2022-11-25T22:11:34.597Z,21.63
2022-11-25T22:14:05.109Z,21.55
2022-11-25T22:16:35.496Z,19.30
2022-11-25T22:19:03.255Z,19.05
2022-11-25T22:21:33.052Z,19.95
2022-11-25T22:24:02.372Z,19.73
2022-11-25T22:26:34.418Z,19.63
2022-11-25T22:29:04.607Z,19.88
2022-11-25T22:31:34.552Z,19.33
2022-11-25T22:34:01.841Z,18.33
2022-11-25T22:36:35.761Z,18.45
2022-11-25T22:39:24.075Z,19.65
2022-11-25T22:41:54.243Z,18.83
2022-11-25T22:44:32.450Z,19.88
2022-11-25T22:47:00.233Z,19.13
2022-11-25T22:49:42.244Z,18.90
2022-11-25T22:52:30.227Z,19.48
2022-11-25T22:55:14.608Z,17.25
2022-11-25T22:57:42.120Z,18.17
2022-11-25T23:00:23.345Z,19.30
2022-11-25T23:02:52.437Z,17.95
2022-11-25T23:05:31.935Z,20.88
2022-11-25T23:08:12.785Z,19.33
2022-11-25T23:10:42.645Z,18.73
2022-11-25T23:13:13.059Z,19.42
2022-11-25T23:15:44.194Z,18.98
2022-11-25T23:18:19.822Z,18.27
2022-11-25T23:20:46.990Z,20.30
2022-11-25T23:23:14.423Z,19.65
2022-11-25T23:25:44.973Z,21.40
2022-11-25T23:28:12.356Z,18.75
2022-11-25T23:31:01.958Z,20.15
2022-11-25T23:33:39.655Z,20.98
2022-11-25T23:36:12.697Z,21.23
2022-11-25T23:41:23.065Z,17.27
2022-11-25T23:43:53.236Z,17.65
2022-11-25T23:46:24.431Z,16.83
2022-11-25T23:48:58.240Z,16.85
2022-11-25T23:51:27.168Z,14.85
2022-11-25T23:53:58.596Z,16.25
2022-11-25T23:56:27.760Z,15.95
2022-11-25T23:58:57.608Z,15.07
